createdAt,value
2022-11-23T00:04:43.204Z,6.80
2022-11-23T00:10:44.918Z,6.80
2022-11-23T00:16:46.581Z,6.90
2022-11-23T00:22:48.215Z,6.90
2022-11-23T00:28:49.865Z,6.70
2022-11-23T00:34:51.503Z,6.60
2022-11-23T00:41:00.271Z,6.70
2022-11-23T00:47:01.935Z,6.80
2022-11-23T00:53:03.575Z,6.90
2022-11-23T00:59:05.883Z,6.90
2022-11-23T01:05:07.666Z,7.00
2022-11-23T01:11:10.894Z,7.00
2022-11-23T01:17:13.181Z,7.10
2022-11-23T01:23:14.859Z,7.10
2022-11-23T01:29:16.546Z,7.10
2022-11-23T01:35:18.169Z,7.20
2022-11-23T01:41:21.651Z,7.20
2022-11-23T01:47:23.338Z,7.20
2022-11-23T01:53:26.690Z,7.20
2022-11-23T01:59:30.397Z,7.30
2022-11-23T02:05:35.112Z,7.20
2022-11-23T02:11:36.756Z,7.00
2022-11-23T02:17:38.377Z,6.90
2022-11-23T02:23:58.866Z,7.00
2022-11-23T02:30:00.982Z,6.90
2022-11-23T02:36:02.933Z,7.00
2022-11-23T02:42:05.435Z,6.90
2022-11-23T02:48:07.291Z,6.90
2022-11-23T02:54:09.244Z,7.00
2022-11-23T03:00:11.333Z,6.90
2022-11-23T03:06:12.963Z,6.90
2022-11-23T03:12:14.649Z,6.90
2022-11-23T03:18:16.257Z,6.80
2022-11-23T03:24:18.006Z,6.90
2022-11-23T03:30:19.675Z,6.90
2022-11-23T03:36:21.275Z,7.10
2022-11-23T03:42:22.932Z,7.20
2022-11-23T03:48:24.536Z,7.20
2022-11-23T03:54:26.150Z,7.10
2022-11-23T04:00:28.241Z,7.10
2022-11-23T04:06:29.865Z,7.10
2022-11-23T04:12:31.524Z,7.20
2022-11-23T04:18:33.286Z,7.20
2022-11-23T04:24:34.867Z,7.20
2022-11-23T04:30:36.924Z,7.10
2022-11-23T04:36:38.834Z,7.10
2022-11-23T04:42:40.460Z,7.10
2022-11-23T04:48:42.095Z,7.00
2022-11-23T04:54:44.056Z,7.00
2022-11-23T05:00:45.689Z,7.00
2022-11-23T05:06:47.313Z,7.00
2022-11-23T05:12:48.913Z,6.90
2022-11-23T05:18:50.541Z,6.90
2022-11-23T05:24:52.202Z,6.80
2022-11-23T05:30:54.620Z,6.80
2022-11-23T05:36:56.264Z,6.80
2022-11-23T05:42:58.363Z,6.70
2022-11-23T05:48:59.993Z,6.60
2022-11-23T05:55:01.656Z,6.60
2022-11-23T06:01:03.295Z,6.50
2022-11-23T06:07:05.354Z,6.50
2022-11-23T06:13:07.055Z,6.60
2022-11-23T06:19:08.663Z,6.70
2022-11-23T06:25:10.345Z,6.70
2022-11-23T06:31:12.005Z,6.80
2022-11-23T06:37:13.666Z,6.80
2022-11-23T06:43:15.302Z,6.80
2022-11-23T06:49:19.275Z,6.80
2022-11-23T06:55:21.491Z,6.80
2022-11-23T07:01:23.274Z,6.70
2022-11-23T07:07:25.074Z,6.70
2022-11-23T07:13:26.744Z,6.70
2022-11-23T07:19:28.475Z,6.60
2022-11-23T07:25:30.780Z,6.60
2022-11-23T07:31:32.951Z,6.60
2022-11-23T07:37:34.658Z,6.70
2022-11-23T07:43:36.291Z,6.70
2022-11-23T07:49:37.930Z,6.80
2022-11-23T07:55:39.597Z,6.80
2022-11-23T08:01:41.289Z,6.80
2022-11-23T08:07:43.167Z,6.90
2022-11-23T08:13:45.156Z,6.90
2022-11-23T08:19:46.776Z,7.00
2022-11-23T08:25:48.486Z,7.10
2022-11-23T08:31:50.849Z,7.20
2022-11-23T08:37:52.476Z,7.20
2022-11-23T08:43:54.080Z,7.20
2022-11-23T08:49:57.507Z,7.30
2022-11-23T08:56:02.884Z,7.40
2022-11-23T09:02:04.593Z,7.50
2022-11-23T09:08:06.310Z,7.70
2022-11-23T09:14:07.959Z,7.90
2022-11-23T09:20:10.284Z,8.00
2022-11-23T09:26:11.931Z,8.00
2022-11-23T09:32:13.620Z,8.10
2022-11-23T09:38:15.245Z,8.10
2022-11-23T09:44:35.707Z,8.00
2022-11-23T09:50:48.364Z,8.00
2022-11-23T09:56:51.674Z,8.00
2022-11-23T10:02:53.554Z,8.00
2022-11-23T10:08:55.282Z,8.10
2022-11-23T10:15:18.593Z,8.30
2022-11-23T10:21:23.446Z,8.40
2022-11-23T10:27:25.193Z,8.50
2022-11-23T10:33:30.821Z,8.80
2022-11-23T10:39:32.458Z,9.00
2022-11-23T10:45:34.281Z,9.00
2022-11-23T10:51:36.232Z,9.10
2022-11-23T10:57:45.366Z,9.30
2022-11-23T11:03:47.420Z,9.80
2022-11-23T11:09:54.190Z,9.70
2022-11-23T11:15:57.273Z,9.60
2022-11-23T11:21:59.833Z,9.40
2022-11-23T11:28:03.065Z,9.40
2022-11-23T11:34:25.021Z,9.40
2022-11-23T11:40:45.675Z,9.80
2022-11-23T11:46:51.513Z,10.10
2022-11-23T11:52:56.777Z,10.30
2022-11-23T11:59:03.399Z,10.30
2022-11-23T12:05:23.633Z,10.40
2022-11-23T12:11:25.472Z,10.40
2022-11-23T12:17:33.745Z,10.10
2022-11-23T12:23:58.947Z,9.90
2022-11-23T12:30:13.609Z,9.60
2022-11-23T12:36:20.618Z,9.50
2022-11-23T12:42:32.036Z,9.80
2022-11-23T12:48:36.812Z,9.80
2022-11-23T12:54:48.117Z,9.60
2022-11-23T13:00:53.598Z,9.70
2022-11-23T13:13:42.688Z,9.70
2022-11-23T13:20:04.347Z,9.60
2022-11-23T13:26:12.309Z,9.30
2022-11-23T13:32:32.717Z,9.20
2022-11-23T13:38:41.658Z,9.10
2022-11-23T13:44:43.277Z,9.10
2022-11-23T13:50:47.683Z,9.10
2022-11-23T13:57:02.643Z,9.00
2022-11-23T14:03:22.895Z,8.90
2022-11-23T14:09:28.285Z,8.70
2022-11-23T14:15:34.095Z,8.70
2022-11-23T14:21:41.533Z,8.70
2022-11-23T14:28:21.752Z,8.70
2022-11-23T14:34:23.337Z,8.80
2022-11-23T14:40:27.922Z,8.70
2022-11-23T14:46:29.596Z,8.60
2022-11-23T14:52:33.354Z,8.50
2022-11-23T14:58:36.545Z,8.30
2022-11-23T15:04:41.183Z,8.30
2022-11-23T15:10:53.952Z,8.00
2022-11-23T15:16:55.654Z,7.90
2022-11-23T15:22:57.655Z,7.80
2022-11-23T15:28:59.307Z,7.80
2022-11-23T15:35:06.688Z,7.80
2022-11-23T15:41:08.674Z,7.60
2022-11-23T15:47:20.713Z,7.40
2022-11-23T15:53:25.249Z,7.40
2022-11-23T15:59:45.100Z,7.40
2022-11-23T16:06:06.665Z,7.40
2022-11-23T16:12:26.932Z,7.30
2022-11-23T16:18:31.473Z,7.30
2022-11-23T16:24:34.788Z,7.30
2022-11-23T16:30:36.740Z,7.20
2022-11-23T16:36:38.370Z,7.20
2022-11-23T16:42:40.158Z,7.10
2022-11-23T16:48:42.029Z,7.10
2022-11-23T16:54:43.678Z,6.90
2022-11-23T17:00:45.547Z,6.80
2022-11-23T17:06:47.438Z,6.70
2022-11-23T17:12:53.401Z,6.60
2022-11-23T17:18:54.991Z,6.70
2022-11-23T17:24:56.678Z,6.60
2022-11-23T17:30:58.375Z,6.50
2022-11-23T17:37:00.125Z,6.40
2022-11-23T17:43:02.108Z,6.50
2022-11-23T17:49:03.799Z,6.50
2022-11-23T17:55:05.670Z,6.30
2022-11-23T18:01:11.086Z,6.50
2022-11-23T18:07:13.759Z,6.50
2022-11-23T18:13:15.573Z,6.70
2022-11-23T18:19:17.608Z,6.80
2022-11-23T18:25:19.233Z,6.90
2022-11-23T18:31:21.064Z,6.90
2022-11-23T18:37:22.785Z,7.00
2022-11-23T18:43:24.426Z,7.10
2022-11-23T18:49:26.075Z,7.10
2022-11-23T18:55:27.695Z,7.20
2022-11-23T19:01:29.626Z,7.30
2022-11-23T19:07:31.315Z,7.30
2022-11-23T19:13:34.986Z,7.30
2022-11-23T19:19:37.984Z,7.20
2022-11-23T19:25:39.783Z,7.30
2022-11-23T19:31:41.488Z,7.30
2022-11-23T19:37:43.117Z,7.30
2022-11-23T19:43:45.162Z,7.20
2022-11-23T19:49:47.038Z,7.10
2022-11-23T19:55:48.976Z,6.80
2022-11-23T20:01:50.645Z,6.70
2022-11-23T20:07:52.325Z,6.60
2022-11-23T20:13:54.638Z,6.50
2022-11-23T20:19:56.440Z,6.50
2022-11-23T20:25:58.311Z,6.40
2022-11-23T20:31:59.967Z,6.40
2022-11-23T20:38:01.657Z,6.30
2022-11-23T20:44:11.080Z,6.30
2022-11-23T20:50:12.977Z,6.30
2022-11-23T20:56:14.940Z,6.30
2022-11-23T21:02:16.627Z,6.30
2022-11-23T21:08:30.233Z,6.30
2022-11-23T21:14:35.025Z,6.30
2022-11-23T21:20:36.940Z,6.30
2022-11-23T21:26:39.139Z,6.30
2022-11-23T21:32:40.792Z,6.20
2022-11-23T21:38:42.452Z,6.20
2022-11-23T21:44:44.078Z,6.30
2022-11-23T21:50:45.716Z,6.30
2022-11-23T21:56:47.444Z,6.30
2022-11-23T22:02:49.103Z,6.30
2022-11-23T22:08:55.105Z,6.40
2022-11-23T22:14:57.136Z,6.40
2022-11-23T22:21:03.212Z,6.30
2022-11-23T22:27:04.909Z,6.40
2022-11-23T22:33:06.494Z,6.40
2022-11-23T22:39:08.317Z,6.40
2022-11-23T22:45:09.948Z,6.40
2022-11-23T22:51:12.978Z,6.40
2022-11-23T22:57:14.574Z,6.40
2022-11-23T23:03:16.309Z,6.40
2022-11-23T23:09:18.098Z,6.40
2022-11-23T23:15:20.226Z,6.40
2022-11-23T23:21:22.710Z,6.30
2022-11-23T23:27:24.360Z,6.30
2022-11-23T23:33:25.946Z,6.30
2022-11-23T23:39:27.587Z,6.30
2022-11-23T23:45:29.283Z,6.30
2022-11-23T23:51:30.959Z,6.40
2022-11-23T23:57:32.731Z,6.50
